sensor_id;sensor_type;location;lat;lon;timestamp;temperature;humidity
50758;DHT22;36732;47.980;11.652;2023-06-22T00:00:58;25.80;52.00
50758;DHT22;36732;47.980;11.652;2023-06-22T00:03:24;25.80;52.00
50758;DHT22;36732;47.980;11.652;2023-06-22T00:05:51;25.70;52.00
50758;DHT22;36732;47.980;11.652;2023-06-22T00:08:18;25.70;52.00
50758;DHT22;36732;47.980;11.652;2023-06-22T00:10:45;25.70;52.10
50758;DHT22;36732;47.980;11.652;2023-06-22T00:13:12;25.70;52.10
50758;DHT22;36732;47.980;11.652;2023-06-22T00:15:40;25.60;52.10
50758;DHT22;36732;47.980;11.652;2023-06-22T00:18:07;25.60;52.20
50758;DHT22;36732;47.980;11.652;2023-06-22T00:20:34;25.60;52.10
50758;DHT22;36732;47.980;11.652;2023-06-22T00:23:03;25.60;52.20
50758;DHT22;36732;47.980;11.652;2023-06-22T00:25:39;25.60;52.20
50758;DHT22;36732;47.980;11.652;2023-06-22T00:28:07;25.60;52.30
50758;DHT22;36732;47.980;11.652;2023-06-22T00:30:33;25.50;52.20
50758;DHT22;36732;47.980;11.652;2023-06-22T00:33:00;25.50;52.30
50758;DHT22;36732;47.980;11.652;2023-06-22T00:35:27;25.50;52.40
50758;DHT22;36732;47.980;11.652;2023-06-22T00:37:56;25.50;52.50
50758;DHT22;36732;47.980;11.652;2023-06-22T00:40:31;25.50;52.80
50758;DHT22;36732;47.980;11.652;2023-06-22T00:42:58;25.40;53.10
50758;DHT22;36732;47.980;11.652;2023-06-22T00:45:24;25.40;53.30
50758;DHT22;36732;47.980;11.652;2023-06-22T00:47:53;25.40;53.40
50758;DHT22;36732;47.980;11.652;2023-06-22T00:50:21;25.40;53.50
50758;DHT22;36732;47.980;11.652;2023-06-22T00:52:52;25.40;53.50
50758;DHT22;36732;47.980;11.652;2023-06-22T00:55:23;25.40;53.80
50758;DHT22;36732;47.980;11.652;2023-06-22T00:57:49;25.40;53.60
50758;DHT22;36732;47.980;11.652;2023-06-22T01:00:16;25.40;53.70
50758;DHT22;36732;47.980;11.652;2023-06-22T01:02:46;25.40;53.80
50758;DHT22;36732;47.980;11.652;2023-06-22T01:05:16;25.30;54.00
50758;DHT22;36732;47.980;11.652;2023-06-22T01:08:16;25.30;54.70
50758;DHT22;36732;47.980;11.652;2023-06-22T01:10:50;25.30;54.90
50758;DHT22;36732;47.980;11.652;2023-06-22T01:13:40;25.30;54.50
50758;DHT22;36732;47.980;11.652;2023-06-22T01:16:29;25.30;55.40
50758;DHT22;36732;47.980;11.652;2023-06-22T01:18:57;25.30;55.70
50758;DHT22;36732;47.980;11.652;2023-06-22T01:21:28;25.30;55.30
50758;DHT22;36732;47.980;11.652;2023-06-22T01:24:10;25.30;55.70
50758;DHT22;36732;47.980;11.652;2023-06-22T01:26:49;25.30;56.00
50758;DHT22;36732;47.980;11.652;2023-06-22T01:29:24;25.30;56.20
50758;DHT22;36732;47.980;11.652;2023-06-22T01:31:54;25.20;55.90
50758;DHT22;36732;47.980;11.652;2023-06-22T01:34:22;25.20;56.10
50758;DHT22;36732;47.980;11.652;2023-06-22T01:36:49;25.20;56.20
50758;DHT22;36732;47.980;11.652;2023-06-22T01:39:15;25.20;56.30
50758;DHT22;36732;47.980;11.652;2023-06-22T01:41:42;25.20;56.20
50758;DHT22;36732;47.980;11.652;2023-06-22T01:44:09;25.20;56.30
50758;DHT22;36732;47.980;11.652;2023-06-22T01:46:36;25.20;56.30
50758;DHT22;36732;47.980;11.652;2023-06-22T01:49:04;25.10;56.30
50758;DHT22;36732;47.980;11.652;2023-06-22T01:51:30;25.10;56.30
50758;DHT22;36732;47.980;11.652;2023-06-22T01:53:56;25.20;56.20
50758;DHT22;36732;47.980;11.652;2023-06-22T01:56:22;25.10;56.10
50758;DHT22;36732;47.980;11.652;2023-06-22T01:59:17;25.10;56.10
50758;DHT22;36732;47.980;11.652;2023-06-22T02:02:07;25.10;56.30
50758;DHT22;36732;47.980;11.652;2023-06-22T02:04:42;25.10;56.30
50758;DHT22;36732;47.980;11.652;2023-06-22T02:07:17;25.10;56.00
50758;DHT22;36732;47.980;11.652;2023-06-22T02:09:45;25.10;56.00
50758;DHT22;36732;47.980;11.652;2023-06-22T02:12:13;25.10;55.80
50758;DHT22;36732;47.980;11.652;2023-06-22T02:14:43;25.10;55.80
50758;DHT22;36732;47.980;11.652;2023-06-22T02:17:10;25.10;55.80
50758;DHT22;36732;47.980;11.652;2023-06-22T02:19:37;25.10;55.80
50758;DHT22;36732;47.980;11.652;2023-06-22T02:22:03;25.10;56.40
50758;DHT22;36732;47.980;11.652;2023-06-22T02:24:30;25.10;55.70
50758;DHT22;36732;47.980;11.652;2023-06-22T02:27:01;25.00;55.70
50758;DHT22;36732;47.980;11.652;2023-06-22T02:29:28;25.00;55.70
50758;DHT22;36732;47.980;11.652;2023-06-22T02:31:54;25.00;55.50
50758;DHT22;36732;47.980;11.652;2023-06-22T02:34:21;25.00;55.50
50758;DHT22;36732;47.980;11.652;2023-06-22T02:36:48;25.00;55.50
50758;DHT22;36732;47.980;11.652;2023-06-22T02:39:20;25.00;55.40
50758;DHT22;36732;47.980;11.652;2023-06-22T02:41:48;25.00;55.30
50758;DHT22;36732;47.980;11.652;2023-06-22T02:44:15;25.00;55.20
50758;DHT22;36732;47.980;11.652;2023-06-22T02:46:41;24.90;55.10
50758;DHT22;36732;47.980;11.652;2023-06-22T02:49:06;24.90;55.10
50758;DHT22;36732;47.980;11.652;2023-06-22T02:51:34;24.90;55.10
50758;DHT22;36732;47.980;11.652;2023-06-22T02:54:00;24.90;55.10
50758;DHT22;36732;47.980;11.652;2023-06-22T02:56:26;24.90;55.40
50758;DHT22;36732;47.980;11.652;2023-06-22T02:58:53;24.90;55.00
50758;DHT22;36732;47.980;11.652;2023-06-22T03:01:19;24.90;55.00
50758;DHT22;36732;47.980;11.652;2023-06-22T03:03:49;24.80;54.90
50758;DHT22;36732;47.980;11.652;2023-06-22T03:06:15;24.80;55.70
50758;DHT22;36732;47.980;11.652;2023-06-22T03:08:41;24.80;55.00
50758;DHT22;36732;47.980;11.652;2023-06-22T03:11:07;24.70;55.00
50758;DHT22;36732;47.980;11.652;2023-06-22T03:13:33;24.80;55.00
50758;DHT22;36732;47.980;11.652;2023-06-22T03:15:59;24.70;54.90
50758;DHT22;36732;47.980;11.652;2023-06-22T03:18:25;24.70;55.00
50758;DHT22;36732;47.980;11.652;2023-06-22T03:20:50;24.70;54.90
50758;DHT22;36732;47.980;11.652;2023-06-22T03:23:16;24.70;55.00
50758;DHT22;36732;47.980;11.652;2023-06-22T03:25:42;24.70;55.00
50758;DHT22;36732;47.980;11.652;2023-06-22T03:28:10;24.60;55.10
50758;DHT22;36732;47.980;11.652;2023-06-22T03:30:36;24.60;55.70
50758;DHT22;36732;47.980;11.652;2023-06-22T03:33:01;24.60;55.10
50758;DHT22;36732;47.980;11.652;2023-06-22T03:35:27;24.60;55.00
50758;DHT22;36732;47.980;11.652;2023-06-22T03:37:53;24.50;55.10
50758;DHT22;36732;47.980;11.652;2023-06-22T03:40:19;24.50;55.10
50758;DHT22;36732;47.980;11.652;2023-06-22T03:42:45;24.50;55.20
50758;DHT22;36732;47.980;11.652;2023-06-22T03:45:11;24.50;55.20
50758;DHT22;36732;47.980;11.652;2023-06-22T03:47:36;24.50;55.30
50758;DHT22;36732;47.980;11.652;2023-06-22T03:50:02;24.50;55.30
50758;DHT22;36732;47.980;11.652;2023-06-22T03:52:29;24.40;55.20
50758;DHT22;36732;47.980;11.652;2023-06-22T03:54:55;24.40;55.30
50758;DHT22;36732;47.980;11.652;2023-06-22T03:57:21;24.40;55.40
50758;DHT22;36732;47.980;11.652;2023-06-22T03:59:47;24.40;55.50
50758;DHT22;36732;47.980;11.652;2023-06-22T04:02:13;24.40;55.70
50758;DHT22;36732;47.980;11.652;2023-06-22T04:04:38;24.30;55.90
50758;DHT22;36732;47.980;11.652;2023-06-22T04:07:05;24.30;55.90
50758;DHT22;36732;47.980;11.652;2023-06-22T04:09:30;24.30;56.10
50758;DHT22;36732;47.980;11.652;2023-06-22T04:11:56;24.30;56.20
50758;DHT22;36732;47.980;11.652;2023-06-22T04:14:22;24.30;56.40
50758;DHT22;36732;47.980;11.652;2023-06-22T04:16:47;24.30;56.40
50758;DHT22;36732;47.980;11.652;2023-06-22T04:19:13;24.30;56.50
50758;DHT22;36732;47.980;11.652;2023-06-22T04:21:43;24.30;56.60
50758;DHT22;36732;47.980;11.652;2023-06-22T04:24:10;24.30;56.80
50758;DHT22;36732;47.980;11.652;2023-06-22T04:26:36;24.30;57.50
50758;DHT22;36732;47.980;11.652;2023-06-22T04:29:07;24.30;56.80
50758;DHT22;36732;47.980;11.652;2023-06-22T04:31:34;24.30;56.80
50758;DHT22;36732;47.980;11.652;2023-06-22T04:34:04;24.30;57.00
50758;DHT22;36732;47.980;11.652;2023-06-22T04:36:38;24.30;57.20
50758;DHT22;36732;47.980;11.652;2023-06-22T04:39:12;24.30;57.40
50758;DHT22;36732;47.980;11.652;2023-06-22T04:41:39;24.30;57.30
50758;DHT22;36732;47.980;11.652;2023-06-22T04:44:18;24.30;57.40
50758;DHT22;36732;47.980;11.652;2023-06-22T04:46:51;24.30;57.90
50758;DHT22;36732;47.980;11.652;2023-06-22T04:49:25;24.30;57.60
50758;DHT22;36732;47.980;11.652;2023-06-22T04:51:58;24.30;57.80
50758;DHT22;36732;47.980;11.652;2023-06-22T04:54:24;24.40;57.80
50758;DHT22;36732;47.980;11.652;2023-06-22T04:56:50;24.40;58.00
50758;DHT22;36732;47.980;11.652;2023-06-22T04:59:22;24.40;58.20
50758;DHT22;36732;47.980;11.652;2023-06-22T05:01:59;24.40;58.30
50758;DHT22;36732;47.980;11.652;2023-06-22T05:04:27;24.40;58.30
50758;DHT22;36732;47.980;11.652;2023-06-22T05:06:53;24.40;58.30
50758;DHT22;36732;47.980;11.652;2023-06-22T05:09:20;24.50;58.30
50758;DHT22;36732;47.980;11.652;2023-06-22T05:11:47;24.50;58.30
50758;DHT22;36732;47.980;11.652;2023-06-22T05:14:13;24.50;58.40
50758;DHT22;36732;47.980;11.652;2023-06-22T05:16:41;24.50;58.50
50758;DHT22;36732;47.980;11.652;2023-06-22T05:19:08;24.60;58.90
50758;DHT22;36732;47.980;11.652;2023-06-22T05:21:34;24.60;58.90
50758;DHT22;36732;47.980;11.652;2023-06-22T05:24:01;24.70;59.00
50758;DHT22;36732;47.980;11.652;2023-06-22T05:26:29;24.70;59.20
50758;DHT22;36732;47.980;11.652;2023-06-22T05:29:00;24.80;59.50
50758;DHT22;36732;47.980;11.652;2023-06-22T05:31:26;24.90;59.60
50758;DHT22;36732;47.980;11.652;2023-06-22T05:33:53;25.00;59.60
50758;DHT22;36732;47.980;11.652;2023-06-22T05:36:20;25.10;59.40
50758;DHT22;36732;47.980;11.652;2023-06-22T05:38:47;25.40;59.10
50758;DHT22;36732;47.980;11.652;2023-06-22T05:41:13;25.50;58.70
50758;DHT22;36732;47.980;11.652;2023-06-22T05:43:39;25.60;58.30
50758;DHT22;36732;47.980;11.652;2023-06-22T05:46:05;25.70;58.00
50758;DHT22;36732;47.980;11.652;2023-06-22T05:48:31;25.70;57.50
50758;DHT22;36732;47.980;11.652;2023-06-22T05:50:57;25.80;57.30
50758;DHT22;36732;47.980;11.652;2023-06-22T05:53:24;25.90;57.20
50758;DHT22;36732;47.980;11.652;2023-06-22T05:55:50;25.90;57.20
50758;DHT22;36732;47.980;11.652;2023-06-22T05:58:15;25.90;57.30
50758;DHT22;36732;47.980;11.652;2023-06-22T06:00:42;25.90;57.10
50758;DHT22;36732;47.980;11.652;2023-06-22T06:03:09;25.90;57.00
50758;DHT22;36732;47.980;11.652;2023-06-22T06:05:36;25.90;57.00
50758;DHT22;36732;47.980;11.652;2023-06-22T06:08:03;25.90;57.00
50758;DHT22;36732;47.980;11.652;2023-06-22T06:10:31;25.90;57.00
50758;DHT22;36732;47.980;11.652;2023-06-22T06:12:57;26.00;56.90
50758;DHT22;36732;47.980;11.652;2023-06-22T06:15:23;26.00;56.80
50758;DHT22;36732;47.980;11.652;2023-06-22T06:17:51;26.00;56.90
50758;DHT22;36732;47.980;11.652;2023-06-22T06:20:22;26.00;56.90
50758;DHT22;36732;47.980;11.652;2023-06-22T06:22:49;26.00;56.80
50758;DHT22;36732;47.980;11.652;2023-06-22T06:25:15;26.00;56.70
50758;DHT22;36732;47.980;11.652;2023-06-22T06:27:42;26.10;56.70
50758;DHT22;36732;47.980;11.652;2023-06-22T06:30:10;26.10;56.80
50758;DHT22;36732;47.980;11.652;2023-06-22T06:32:36;26.10;56.80
50758;DHT22;36732;47.980;11.652;2023-06-22T06:35:02;26.10;56.80
50758;DHT22;36732;47.980;11.652;2023-06-22T06:37:28;26.10;56.70
50758;DHT22;36732;47.980;11.652;2023-06-22T06:39:53;26.10;56.70
50758;DHT22;36732;47.980;11.652;2023-06-22T06:42:19;26.10;56.70
50758;DHT22;36732;47.980;11.652;2023-06-22T06:44:45;26.10;56.60
50758;DHT22;36732;47.980;11.652;2023-06-22T06:47:11;26.10;56.70
50758;DHT22;36732;47.980;11.652;2023-06-22T06:49:36;26.20;56.80
50758;DHT22;36732;47.980;11.652;2023-06-22T06:52:02;26.20;56.70
50758;DHT22;36732;47.980;11.652;2023-06-22T06:54:28;26.20;56.60
50758;DHT22;36732;47.980;11.652;2023-06-22T06:56:54;26.20;56.50
50758;DHT22;36732;47.980;11.652;2023-06-22T06:59:19;26.20;56.50
50758;DHT22;36732;47.980;11.652;2023-06-22T07:01:45;26.20;56.30
50758;DHT22;36732;47.980;11.652;2023-06-22T07:04:11;26.30;56.30
50758;DHT22;36732;47.980;11.652;2023-06-22T07:06:36;26.20;56.30
50758;DHT22;36732;47.980;11.652;2023-06-22T07:09:03;26.20;56.30
50758;DHT22;36732;47.980;11.652;2023-06-22T07:11:29;26.30;56.40
50758;DHT22;36732;47.980;11.652;2023-06-22T07:13:54;26.30;56.40
50758;DHT22;36732;47.980;11.652;2023-06-22T07:16:20;26.30;56.30
50758;DHT22;36732;47.980;11.652;2023-06-22T07:18:46;26.30;56.30
50758;DHT22;36732;47.980;11.652;2023-06-22T07:21:12;26.30;56.30
50758;DHT22;36732;47.980;11.652;2023-06-22T07:23:37;26.40;56.50
50758;DHT22;36732;47.980;11.652;2023-06-22T07:26:03;26.40;56.50
50758;DHT22;36732;47.980;11.652;2023-06-22T07:28:31;26.40;56.40
50758;DHT22;36732;47.980;11.652;2023-06-22T07:31:02;26.40;56.20
50758;DHT22;36732;47.980;11.652;2023-06-22T07:33:29;26.40;56.30
50758;DHT22;36732;47.980;11.652;2023-06-22T07:35:54;26.40;56.40
50758;DHT22;36732;47.980;11.652;2023-06-22T07:38:20;26.50;56.50
50758;DHT22;36732;47.980;11.652;2023-06-22T07:40:46;26.50;56.30
50758;DHT22;36732;47.980;11.652;2023-06-22T07:43:12;26.50;56.00
50758;DHT22;36732;47.980;11.652;2023-06-22T07:45:38;26.50;55.90
50758;DHT22;36732;47.980;11.652;2023-06-22T07:48:06;26.50;55.90
50758;DHT22;36732;47.980;11.652;2023-06-22T07:50:32;26.50;56.00
50758;DHT22;36732;47.980;11.652;2023-06-22T07:52:58;26.50;56.00
50758;DHT22;36732;47.980;11.652;2023-06-22T07:55:23;26.50;56.00
50758;DHT22;36732;47.980;11.652;2023-06-22T07:57:49;26.60;56.10
50758;DHT22;36732;47.980;11.652;2023-06-22T08:00:17;26.60;55.90
50758;DHT22;36732;47.980;11.652;2023-06-22T08:02:45;26.60;55.80
50758;DHT22;36732;47.980;11.652;2023-06-22T08:05:11;26.60;55.80
50758;DHT22;36732;47.980;11.652;2023-06-22T08:07:38;26.60;55.90
50758;DHT22;36732;47.980;11.652;2023-06-22T08:10:05;26.70;56.00
50758;DHT22;36732;47.980;11.652;2023-06-22T08:12:31;26.70;55.80
50758;DHT22;36732;47.980;11.652;2023-06-22T08:14:57;26.70;55.80
50758;DHT22;36732;47.980;11.652;2023-06-22T08:17:24;26.70;56.00
50758;DHT22;36732;47.980;11.652;2023-06-22T08:19:50;26.80;56.10
50758;DHT22;36732;47.980;11.652;2023-06-22T08:22:16;26.70;56.10
50758;DHT22;36732;47.980;11.652;2023-06-22T08:24:42;26.80;56.10
50758;DHT22;36732;47.980;11.652;2023-06-22T08:27:09;26.80;56.30
50758;DHT22;36732;47.980;11.652;2023-06-22T08:29:37;26.90;56.20
50758;DHT22;36732;47.980;11.652;2023-06-22T08:32:03;26.80;56.20
50758;DHT22;36732;47.980;11.652;2023-06-22T08:34:28;26.90;56.20
50758;DHT22;36732;47.980;11.652;2023-06-22T08:36:54;26.90;56.10
50758;DHT22;36732;47.980;11.652;2023-06-22T08:39:20;27.00;56.20
50758;DHT22;36732;47.980;11.652;2023-06-22T08:41:47;27.00;56.20
50758;DHT22;36732;47.980;11.652;2023-06-22T08:44:13;27.00;56.10
50758;DHT22;36732;47.980;11.652;2023-06-22T08:46:39;27.00;56.00
50758;DHT22;36732;47.980;11.652;2023-06-22T08:49:06;27.00;55.90
50758;DHT22;36732;47.980;11.652;2023-06-22T08:51:32;27.10;56.00
50758;DHT22;36732;47.980;11.652;2023-06-22T08:53:58;27.10;56.00
50758;DHT22;36732;47.980;11.652;2023-06-22T08:56:23;27.10;56.10
50758;DHT22;36732;47.980;11.652;2023-06-22T08:58:49;27.10;56.10
50758;DHT22;36732;47.980;11.652;2023-06-22T09:01:15;27.10;56.10
50758;DHT22;36732;47.980;11.652;2023-06-22T09:03:41;27.10;56.20
50758;DHT22;36732;47.980;11.652;2023-06-22T09:06:07;27.20;56.00
50758;DHT22;36732;47.980;11.652;2023-06-22T09:08:35;27.20;55.70
50758;DHT22;36732;47.980;11.652;2023-06-22T09:11:01;27.20;55.80
50758;DHT22;36732;47.980;11.652;2023-06-22T09:13:29;27.20;55.70
50758;DHT22;36732;47.980;11.652;2023-06-22T09:15:56;27.30;55.80
50758;DHT22;36732;47.980;11.652;2023-06-22T09:18:21;27.30;55.80
50758;DHT22;36732;47.980;11.652;2023-06-22T09:20:47;27.30;55.80
50758;DHT22;36732;47.980;11.652;2023-06-22T09:23:13;27.30;55.80
50758;DHT22;36732;47.980;11.652;2023-06-22T09:25:40;27.30;56.00
50758;DHT22;36732;47.980;11.652;2023-06-22T09:28:06;27.30;56.00
50758;DHT22;36732;47.980;11.652;2023-06-22T09:30:32;27.40;55.90
50758;DHT22;36732;47.980;11.652;2023-06-22T09:32:57;27.40;55.80
50758;DHT22;36732;47.980;11.652;2023-06-22T09:35:23;27.40;55.80
50758;DHT22;36732;47.980;11.652;2023-06-22T09:37:49;27.40;55.50
50758;DHT22;36732;47.980;11.652;2023-06-22T09:40:14;27.50;55.40
50758;DHT22;36732;47.980;11.652;2023-06-22T09:42:42;27.50;55.40
50758;DHT22;36732;47.980;11.652;2023-06-22T09:45:08;27.50;55.70
50758;DHT22;36732;47.980;11.652;2023-06-22T09:47:34;27.50;55.60
50758;DHT22;36732;47.980;11.652;2023-06-22T09:50:00;27.60;55.60
50758;DHT22;36732;47.980;11.652;2023-06-22T09:52:26;27.60;54.80
50758;DHT22;36732;47.980;11.652;2023-06-22T09:54:51;27.70;54.90
50758;DHT22;36732;47.980;11.652;2023-06-22T09:57:17;27.70;54.80
50758;DHT22;36732;47.980;11.652;2023-06-22T09:59:43;27.80;54.60
50758;DHT22;36732;47.980;11.652;2023-06-22T10:02:09;27.80;54.50
50758;DHT22;36732;47.980;11.652;2023-06-22T10:04:35;27.80;54.70
50758;DHT22;36732;47.980;11.652;2023-06-22T10:07:01;27.80;54.70
50758;DHT22;36732;47.980;11.652;2023-06-22T10:09:27;27.90;54.70
50758;DHT22;36732;47.980;11.652;2023-06-22T10:11:53;27.90;54.40
50758;DHT22;36732;47.980;11.652;2023-06-22T10:14:19;27.90;54.60
50758;DHT22;36732;47.980;11.652;2023-06-22T10:16:45;28.00;54.80
50758;DHT22;36732;47.980;11.652;2023-06-22T10:19:11;28.00;54.40
50758;DHT22;36732;47.980;11.652;2023-06-22T10:21:36;28.00;54.10
50758;DHT22;36732;47.980;11.652;2023-06-22T10:24:02;28.00;53.90
50758;DHT22;36732;47.980;11.652;2023-06-22T10:26:35;28.10;54.20
50758;DHT22;36732;47.980;11.652;2023-06-22T10:29:02;28.10;54.50
50758;DHT22;36732;47.980;11.652;2023-06-22T10:31:28;28.10;54.60
50758;DHT22;36732;47.980;11.652;2023-06-22T10:33:54;28.10;54.40
50758;DHT22;36732;47.980;11.652;2023-06-22T10:36:21;28.10;54.20
50758;DHT22;36732;47.980;11.652;2023-06-22T10:38:47;28.20;53.90
50758;DHT22;36732;47.980;11.652;2023-06-22T10:41:13;28.20;53.60
50758;DHT22;36732;47.980;11.652;2023-06-22T10:43:39;28.20;53.30
50758;DHT22;36732;47.980;11.652;2023-06-22T10:46:06;28.20;53.40
50758;DHT22;36732;47.980;11.652;2023-06-22T10:48:31;28.20;53.20
50758;DHT22;36732;47.980;11.652;2023-06-22T10:50:57;28.30;53.30
50758;DHT22;36732;47.980;11.652;2023-06-22T10:53:23;28.30;52.90
50758;DHT22;36732;47.980;11.652;2023-06-22T10:55:49;28.30;52.90
50758;DHT22;36732;47.980;11.652;2023-06-22T10:58:15;28.30;52.60
50758;DHT22;36732;47.980;11.652;2023-06-22T11:00:40;28.30;52.50
50758;DHT22;36732;47.980;11.652;2023-06-22T11:03:06;28.40;52.30
50758;DHT22;36732;47.980;11.652;2023-06-22T11:05:32;28.40;52.00
50758;DHT22;36732;47.980;11.652;2023-06-22T11:07:58;28.40;52.30
50758;DHT22;36732;47.980;11.652;2023-06-22T11:10:23;28.40;52.30
50758;DHT22;36732;47.980;11.652;2023-06-22T11:12:49;28.40;52.20
50758;DHT22;36732;47.980;11.652;2023-06-22T11:15:15;28.50;52.30
50758;DHT22;36732;47.980;11.652;2023-06-22T11:17:40;28.50;52.50
50758;DHT22;36732;47.980;11.652;2023-06-22T11:20:07;28.50;52.50
50758;DHT22;36732;47.980;11.652;2023-06-22T11:22:39;28.50;52.20
50758;DHT22;36732;47.980;11.652;2023-06-22T11:25:07;28.50;52.30
50758;DHT22;36732;47.980;11.652;2023-06-22T11:27:33;28.50;52.60
50758;DHT22;36732;47.980;11.652;2023-06-22T11:29:59;28.60;52.30
50758;DHT22;36732;47.980;11.652;2023-06-22T11:32:24;28.60;52.30
50758;DHT22;36732;47.980;11.652;2023-06-22T11:34:50;28.60;52.00
50758;DHT22;36732;47.980;11.652;2023-06-22T11:37:16;28.60;51.90
50758;DHT22;36732;47.980;11.652;2023-06-22T11:39:42;28.60;52.00
50758;DHT22;36732;47.980;11.652;2023-06-22T11:42:11;28.60;52.20
50758;DHT22;36732;47.980;11.652;2023-06-22T11:44:37;28.60;52.50
50758;DHT22;36732;47.980;11.652;2023-06-22T11:47:03;28.60;52.50
50758;DHT22;36732;47.980;11.652;2023-06-22T11:49:32;28.60;52.60
50758;DHT22;36732;47.980;11.652;2023-06-22T11:51:58;28.70;52.70
50758;DHT22;36732;47.980;11.652;2023-06-22T11:54:24;28.70;52.60
50758;DHT22;36732;47.980;11.652;2023-06-22T11:56:50;28.70;52.60
50758;DHT22;36732;47.980;11.652;2023-06-22T11:59:15;28.70;52.30
50758;DHT22;36732;47.980;11.652;2023-06-22T12:01:41;28.70;52.90
50758;DHT22;36732;47.980;11.652;2023-06-22T12:04:07;28.80;52.60
50758;DHT22;36732;47.980;11.652;2023-06-22T12:06:33;28.80;52.70
50758;DHT22;36732;47.980;11.652;2023-06-22T12:09:00;28.80;52.60
50758;DHT22;36732;47.980;11.652;2023-06-22T12:11:26;28.90;52.40
50758;DHT22;36732;47.980;11.652;2023-06-22T12:13:52;28.90;51.70
50758;DHT22;36732;47.980;11.652;2023-06-22T12:16:18;28.90;51.60
50758;DHT22;36732;47.980;11.652;2023-06-22T12:18:43;28.90;51.60
50758;DHT22;36732;47.980;11.652;2023-06-22T12:21:09;29.00;52.00
50758;DHT22;36732;47.980;11.652;2023-06-22T12:23:35;28.90;52.10
50758;DHT22;36732;47.980;11.652;2023-06-22T12:26:00;29.00;52.40
50758;DHT22;36732;47.980;11.652;2023-06-22T12:28:27;29.00;52.40
50758;DHT22;36732;47.980;11.652;2023-06-22T12:30:52;29.00;52.60
50758;DHT22;36732;47.980;11.652;2023-06-22T12:33:18;29.10;52.40
50758;DHT22;36732;47.980;11.652;2023-06-22T12:35:44;29.00;52.30
50758;DHT22;36732;47.980;11.652;2023-06-22T12:38:10;29.10;52.30
50758;DHT22;36732;47.980;11.652;2023-06-22T12:40:36;29.10;52.20
50758;DHT22;36732;47.980;11.652;2023-06-22T12:43:02;29.10;52.20
50758;DHT22;36732;47.980;11.652;2023-06-22T12:45:28;29.10;52.10
50758;DHT22;36732;47.980;11.652;2023-06-22T12:47:57;29.10;51.60
50758;DHT22;36732;47.980;11.652;2023-06-22T12:50:22;29.20;51.40
50758;DHT22;36732;47.980;11.652;2023-06-22T12:52:48;29.20;51.20
50758;DHT22;36732;47.980;11.652;2023-06-22T12:55:14;29.30;51.30
50758;DHT22;36732;47.980;11.652;2023-06-22T12:57:39;29.30;50.60
50758;DHT22;36732;47.980;11.652;2023-06-22T13:00:06;29.40;50.30
50758;DHT22;36732;47.980;11.652;2023-06-22T13:02:34;29.40;49.90
50758;DHT22;36732;47.980;11.652;2023-06-22T13:04:59;29.50;50.00
50758;DHT22;36732;47.980;11.652;2023-06-22T13:07:25;29.50;49.80
50758;DHT22;36732;47.980;11.652;2023-06-22T13:09:51;29.60;49.80
50758;DHT22;36732;47.980;11.652;2023-06-22T13:12:17;29.60;49.80
50758;DHT22;36732;47.980;11.652;2023-06-22T13:14:43;29.60;49.80
50758;DHT22;36732;47.980;11.652;2023-06-22T13:17:09;29.60;50.00
50758;DHT22;36732;47.980;11.652;2023-06-22T13:19:35;29.60;49.90
50758;DHT22;36732;47.980;11.652;2023-06-22T13:22:00;29.60;50.00
50758;DHT22;36732;47.980;11.652;2023-06-22T13:24:27;29.70;49.90
50758;DHT22;36732;47.980;11.652;2023-06-22T13:26:53;29.70;49.90
50758;DHT22;36732;47.980;11.652;2023-06-22T13:29:20;29.70;50.20
50758;DHT22;36732;47.980;11.652;2023-06-22T13:31:46;29.70;50.50
50758;DHT22;36732;47.980;11.652;2023-06-22T13:34:11;29.70;50.50
50758;DHT22;36732;47.980;11.652;2023-06-22T13:36:37;29.70;50.60
50758;DHT22;36732;47.980;11.652;2023-06-22T13:39:03;29.70;50.70
50758;DHT22;36732;47.980;11.652;2023-06-22T13:41:29;29.70;50.80
50758;DHT22;36732;47.980;11.652;2023-06-22T13:43:55;29.70;50.70
50758;DHT22;36732;47.980;11.652;2023-06-22T13:46:20;29.70;50.70
50758;DHT22;36732;47.980;11.652;2023-06-22T13:48:46;29.80;50.60
50758;DHT22;36732;47.980;11.652;2023-06-22T13:51:12;29.70;50.40
50758;DHT22;36732;47.980;11.652;2023-06-22T13:53:38;29.80;50.40
50758;DHT22;36732;47.980;11.652;2023-06-22T13:56:03;29.80;50.50
50758;DHT22;36732;47.980;11.652;2023-06-22T13:58:29;29.80;50.50
50758;DHT22;36732;47.980;11.652;2023-06-22T14:00:55;29.80;50.50
50758;DHT22;36732;47.980;11.652;2023-06-22T14:03:20;29.80;50.00
50758;DHT22;36732;47.980;11.652;2023-06-22T14:05:46;29.90;50.10
50758;DHT22;36732;47.980;11.652;2023-06-22T14:08:12;29.90;50.70
50758;DHT22;36732;47.980;11.652;2023-06-22T14:10:38;29.90;49.90
50758;DHT22;36732;47.980;11.652;2023-06-22T14:13:03;30.00;49.80
50758;DHT22;36732;47.980;11.652;2023-06-22T14:15:31;30.00;49.80
50758;DHT22;36732;47.980;11.652;2023-06-22T14:17:57;30.00;49.80
50758;DHT22;36732;47.980;11.652;2023-06-22T14:20:23;30.00;49.70
50758;DHT22;36732;47.980;11.652;2023-06-22T14:22:48;30.00;49.70
50758;DHT22;36732;47.980;11.652;2023-06-22T14:25:14;30.10;49.20
50758;DHT22;36732;47.980;11.652;2023-06-22T14:27:40;30.10;48.90
50758;DHT22;36732;47.980;11.652;2023-06-22T14:30:06;30.10;48.90
50758;DHT22;36732;47.980;11.652;2023-06-22T14:32:32;30.10;48.90
50758;DHT22;36732;47.980;11.652;2023-06-22T14:34:58;30.20;48.90
50758;DHT22;36732;47.980;11.652;2023-06-22T14:37:23;30.20;48.40
50758;DHT22;36732;47.980;11.652;2023-06-22T14:39:49;30.20;48.00
50758;DHT22;36732;47.980;11.652;2023-06-22T14:42:15;30.20;48.20
50758;DHT22;36732;47.980;11.652;2023-06-22T14:44:40;30.20;48.10
50758;DHT22;36732;47.980;11.652;2023-06-22T14:47:06;30.20;48.20
50758;DHT22;36732;47.980;11.652;2023-06-22T14:49:32;30.20;48.30
50758;DHT22;36732;47.980;11.652;2023-06-22T14:51:58;30.20;47.90
50758;DHT22;36732;47.980;11.652;2023-06-22T14:54:24;30.20;47.40
50758;DHT22;36732;47.980;11.652;2023-06-22T14:56:50;30.30;47.30
50758;DHT22;36732;47.980;11.652;2023-06-22T14:59:16;30.30;47.40
50758;DHT22;36732;47.980;11.652;2023-06-22T15:01:42;30.30;47.30
50758;DHT22;36732;47.980;11.652;2023-06-22T15:04:07;30.30;47.50
50758;DHT22;36732;47.980;11.652;2023-06-22T15:06:33;30.30;46.90
50758;DHT22;36732;47.980;11.652;2023-06-22T15:08:59;30.30;46.70
50758;DHT22;36732;47.980;11.652;2023-06-22T15:11:25;30.30;46.50
50758;DHT22;36732;47.980;11.652;2023-06-22T15:13:50;30.40;46.60